Bonaria — ICUS — position and weather

sailwx.info

Track history (hours):
 
Tides and Currents Weather Stations Pressure Air Temp Water Temp Dewpoint Dewpoint Depression Visibility Wind Speed Wind Dir Waves Ship Positions

Bonaria

Last reported at 2014-Oct-02 07:25 UTC. Time now 2014-Oct-02 08:27 UTC.
Position N 40°55' E 009°32'.

Length 213 m; draft 6.8 m.

Type: Ship. MMSI: 247322400.

Date/timePositionNaut miles runAvg speedWind from/ knotsBaromVisibWave heightAir tempDewpointWater temp
2014-Oct-02 07:25N 40°55' E 009°32'0 0.0
2014-Oct-02 05:33N 40°55' E 009°32'0 0.0
2014-Oct-02 04:18N 40°55' E 009°32'3 3.7
2014-Oct-02 03:33N 40°56' E 009°35'3 0.1
2014-Sep-30 20:33N 40°55' E 009°32'0 0.0
2014-Sep-30 18:32N 40°55' E 009°32'0 0.0
2014-Sep-30 17:27N 40°55' E 009°32'0 0.0
2014-Sep-30 16:31N 40°55' E 009°32'0 0.0
2014-Sep-30 15:18N 40°55' E 009°32'0 0.0
2014-Sep-30 14:33N 40°55' E 009°32'0 0.0
2014-Sep-30 13:33N 40°55' E 009°32'0 0.0
2014-Sep-30 11:32N 40°55' E 009°32'0 0.0
2014-Sep-30 10:13N 40°55' E 009°32'0 0.0
2014-Sep-30 09:28N 40°55' E 009°32'0 0.0
2014-Sep-30 08:30N 40°55' E 009°32'0 0.0
2014-Sep-30 07:21N 40°55' E 009°32'0 0.0
2014-Sep-30 06:33N 40°55' E 009°32'0 0.0
2014-Sep-30 05:08N 40°55' E 009°32'0 0.0
2014-Sep-30 04:32N 40°55' E 009°32'2 2.2
2014-Sep-30 03:33N 40°55' E 009°34'114 3.4
2014-Sep-28 18:11N 39°02' E 009°24'1219.4
2014-Sep-28 17:33N 39°08' E 009°10'5 5.2
2014-Sep-28 16:33N 39°13' E 009°06'0 0.0
2014-Sep-28 15:33N 39°13' E 009°06'0 0.0
2014-Sep-28 14:32N 39°13' E 009°06'0 0.0
2014-Sep-28 13:32N 39°13' E 009°06'0 0.0
2014-Sep-28 12:31N 39°13' E 009°06'0 0.0
2014-Sep-28 11:31N 39°13' E 009°06'0 0.0
2014-Sep-28 10:33N 39°13' E 009°06'0 0.0
2014-Sep-28 09:33N 39°13' E 009°06'0 0.0
2014-Sep-28 08:33N 39°13' E 009°06'0 0.0
2014-Sep-28 07:32N 39°13' E 009°06'0 0.0
2014-Sep-28 06:32N 39°13' E 009°06'3 2.8
2014-Sep-28 05:32N 39°10' E 009°08'2 0.0
2014-Sep-26 17:33N 39°09' E 009°10'4 4.3
2014-Sep-26 16:32N 39°13' E 009°06'0 0.0
2014-Sep-26 15:32N 39°13' E 009°06'0 0.0
2014-Sep-26 14:31N 39°13' E 009°06'0 0.0
2014-Sep-26 13:31N 39°13' E 009°06'0 0.0
2014-Sep-26 12:32N 39°13' E 009°06'0 0.0
2014-Sep-26 11:33N 39°13' E 009°06'0 0.0
2014-Sep-26 10:30N 39°13' E 009°06'0 0.0
2014-Sep-26 09:32N 39°13' E 009°06'0 0.0
2014-Sep-26 08:32N 39°13' E 009°06'0 0.0
2014-Sep-26 07:31N 39°13' E 009°06'4 0.1
2014-Sep-24 17:33N 39°09' E 009°09'4 3.6
2014-Sep-24 16:33N 39°13' E 009°06'0 0.0
2014-Sep-24 15:33N 39°13' E 009°06'0 0.0
2014-Sep-24 14:32N 39°13' E 009°06'0 0.0
2014-Sep-24 13:32N 39°13' E 009°06'0 0.0
2014-Sep-24 12:32N 39°13' E 009°06'0 0.0
2014-Sep-24 11:31N 39°13' E 009°06'0 0.0
2014-Sep-24 10:31N 39°13' E 009°06'0 0.0
2014-Sep-24 07:32N 39°13' E 009°06'0 0.0
2014-Sep-24 06:32N 39°13' E 009°06'3 2.6
2014-Sep-24 05:33N 39°10' E 009°08'98 3.3
2014-Sep-22 23:33N 40°23' E 010°34'9020.5
2014-Sep-22 19:10N 39°03' E 009°39'1115.8
2014-Sep-22 18:29N 39°01' E 009°25'1818.6
2014-Sep-22 17:32N 39°11' E 009°06'1 1.3
2014-Sep-22 16:33N 39°13' E 009°06'0 0.0
2014-Sep-22 15:33N 39°13' E 009°06'0 0.0
2014-Sep-22 14:32N 39°13' E 009°06'0 0.0
2014-Sep-22 13:32N 39°13' E 009°06'0 0.0
2014-Sep-22 12:29N 39°13' E 009°06'0 0.0
2014-Sep-22 11:31N 39°13' E 009°06'0 0.0
2014-Sep-22 10:31N 39°13' E 009°06'0 0.0
2014-Sep-22 09:33N 39°13' E 009°06'0 0.0
2014-Sep-22 08:33N 39°13' E 009°06'0 0.0
2014-Sep-22 07:32N 39°13' E 009°06'  
Track history (hours):
 
Tides and Currents Weather Stations Pressure Air Temp Water Temp Dewpoint Dewpoint Depression Visibility Wind Speed Wind Dir Waves Ship Positions

Bonaria

Last reported at 2014-Oct-02 07:25 UTC. Time now 2014-Oct-02 08:27 UTC.
Position N 40°55' E 009°32'.

Length 213 m; draft 6.8 m.

Type: Ship. MMSI: 247322400.

Date/timePositionNaut miles runAvg speedWind from/ knotsBaromVisibWave heightAir tempDewpointWater temp
2014-Oct-02 07:25N 40°55' E 009°32'0 0.0
2014-Oct-02 05:33N 40°55' E 009°32'0 0.0
2014-Oct-02 04:18N 40°55' E 009°32'3 3.7
2014-Oct-02 03:33N 40°56' E 009°35'3 0.1
2014-Sep-30 20:33N 40°55' E 009°32'0 0.0
2014-Sep-30 18:32N 40°55' E 009°32'0 0.0
2014-Sep-30 17:27N 40°55' E 009°32'0 0.0
2014-Sep-30 16:31N 40°55' E 009°32'0 0.0
2014-Sep-30 15:18N 40°55' E 009°32'0 0.0
2014-Sep-30 14:33N 40°55' E 009°32'0 0.0
2014-Sep-30 13:33N 40°55' E 009°32'0 0.0
2014-Sep-30 11:32N 40°55' E 009°32'0 0.0
2014-Sep-30 10:13N 40°55' E 009°32'0 0.0
2014-Sep-30 09:28N 40°55' E 009°32'0 0.0
2014-Sep-30 08:30N 40°55' E 009°32'0 0.0
2014-Sep-30 07:21N 40°55' E 009°32'0 0.0
2014-Sep-30 06:33N 40°55' E 009°32'0 0.0
2014-Sep-30 05:08N 40°55' E 009°32'0 0.0
2014-Sep-30 04:32N 40°55' E 009°32'2 2.2
2014-Sep-30 03:33N 40°55' E 009°34'114 3.4
2014-Sep-28 18:11N 39°02' E 009°24'1219.4
2014-Sep-28 17:33N 39°08' E 009°10'5 5.2
2014-Sep-28 16:33N 39°13' E 009°06'0 0.0
2014-Sep-28 15:33N 39°13' E 009°06'0 0.0
2014-Sep-28 14:32N 39°13' E 009°06'0 0.0
2014-Sep-28 13:32N 39°13' E 009°06'0 0.0
2014-Sep-28 12:31N 39°13' E 009°06'0 0.0
2014-Sep-28 11:31N 39°13' E 009°06'0 0.0
2014-Sep-28 10:33N 39°13' E 009°06'0 0.0
2014-Sep-28 09:33N 39°13' E 009°06'0 0.0
2014-Sep-28 08:33N 39°13' E 009°06'0 0.0
2014-Sep-28 07:32N 39°13' E 009°06'0 0.0
2014-Sep-28 06:32N 39°13' E 009°06'3 2.8
2014-Sep-28 05:32N 39°10' E 009°08'2 0.0
2014-Sep-26 17:33N 39°09' E 009°10'4 4.3
2014-Sep-26 16:32N 39°13' E 009°06'0 0.0
2014-Sep-26 15:32N 39°13' E 009°06'0 0.0
2014-Sep-26 14:31N 39°13' E 009°06'0 0.0
2014-Sep-26 13:31N 39°13' E 009°06'0 0.0
2014-Sep-26 12:32N 39°13' E 009°06'0 0.0
2014-Sep-26 11:33N 39°13' E 009°06'0 0.0
2014-Sep-26 10:30N 39°13' E 009°06'0 0.0
2014-Sep-26 09:32N 39°13' E 009°06'0 0.0
2014-Sep-26 08:32N 39°13' E 009°06'0 0.0
2014-Sep-26 07:31N 39°13' E 009°06'4 0.1
2014-Sep-24 17:33N 39°09' E 009°09'4 3.6
2014-Sep-24 16:33N 39°13' E 009°06'0 0.0
2014-Sep-24 15:33N 39°13' E 009°06'0 0.0
2014-Sep-24 14:32N 39°13' E 009°06'0 0.0
2014-Sep-24 13:32N 39°13' E 009°06'0 0.0
2014-Sep-24 12:32N 39°13' E 009°06'0 0.0
2014-Sep-24 11:31N 39°13' E 009°06'0 0.0
2014-Sep-24 10:31N 39°13' E 009°06'0 0.0
2014-Sep-24 07:32N 39°13' E 009°06'0 0.0
2014-Sep-24 06:32N 39°13' E 009°06'3 2.6
2014-Sep-24 05:33N 39°10' E 009°08'98 3.3
2014-Sep-22 23:33N 40°23' E 010°34'9020.5
2014-Sep-22 19:10N 39°03' E 009°39'1115.8
2014-Sep-22 18:29N 39°01' E 009°25'1818.6
2014-Sep-22 17:32N 39°11' E 009°06'1 1.3
2014-Sep-22 16:33N 39°13' E 009°06'0 0.0
2014-Sep-22 15:33N 39°13' E 009°06'0 0.0
2014-Sep-22 14:32N 39°13' E 009°06'0 0.0
2014-Sep-22 13:32N 39°13' E 009°06'0 0.0
2014-Sep-22 12:29N 39°13' E 009°06'0 0.0
2014-Sep-22 11:31N 39°13' E 009°06'0 0.0
2014-Sep-22 10:31N 39°13' E 009°06'0 0.0
2014-Sep-22 09:33N 39°13' E 009°06'0 0.0
2014-Sep-22 08:33N 39°13' E 009°06'0 0.0
2014-Sep-22 07:32N 39°13' E 009°06'  

Dump ship's entire track history